createdAt,value
2018-06-18T00:00:06.093Z,17.12
2018-06-18T00:01:06.252Z,17.19
2018-06-18T00:02:06.100Z,17.19
2018-06-18T00:03:05.529Z,17.19
2018-06-18T00:04:05.846Z,17.19
2018-06-18T00:05:06.172Z,17.19
2018-06-18T00:06:05.947Z,17.19
2018-06-18T00:07:05.941Z,17.19
2018-06-18T00:08:05.965Z,17.19
2018-06-18T00:09:05.941Z,17.19
2018-06-18T00:10:05.770Z,17.25
2018-06-18T00:11:05.882Z,17.25
2018-06-18T00:12:05.533Z,17.25
2018-06-18T00:13:06.328Z,17.25
2018-06-18T00:14:06.446Z,17.25
2018-06-18T00:15:06.334Z,17.25
2018-06-18T00:16:05.902Z,17.25
2018-06-18T00:17:05.790Z,17.25
2018-06-18T00:18:06.499Z,17.31
2018-06-18T00:19:06.120Z,17.25
2018-06-18T00:20:06.334Z,17.31
2018-06-18T00:21:06.456Z,17.25
2018-06-18T00:22:05.844Z,17.31
2018-06-18T00:23:06.667Z,17.31
2018-06-18T00:24:06.255Z,17.31
2018-06-18T00:25:06.019Z,17.31
2018-06-18T00:26:05.609Z,17.31
2018-06-18T00:27:06.034Z,17.31
2018-06-18T00:28:05.775Z,17.31
2018-06-18T00:29:06.188Z,17.31
2018-06-18T00:30:06.357Z,17.31
2018-06-18T00:31:06.184Z,17.31
2018-06-18T00:32:11.095Z,17.31
2018-06-18T00:33:05.724Z,17.31
2018-06-18T00:34:06.106Z,17.31
2018-06-18T00:35:05.934Z,17.31
2018-06-18T00:36:06.040Z,17.31
2018-06-18T00:37:06.752Z,17.31
2018-06-18T00:38:06.419Z,17.31
2018-06-18T00:39:06.331Z,17.31
2018-06-18T00:40:07.162Z,17.31
2018-06-18T00:41:06.581Z,17.38
2018-06-18T00:42:06.480Z,17.38
2018-06-18T00:43:05.972Z,17.31
2018-06-18T00:44:05.873Z,17.31
2018-06-18T00:45:06.177Z,17.31
2018-06-18T00:46:06.151Z,17.31
2018-06-18T00:47:06.109Z,17.31
2018-06-18T00:48:05.938Z,17.31
2018-06-18T00:49:05.619Z,17.31
2018-06-18T00:50:06.149Z,17.31
2018-06-18T00:51:05.765Z,17.31
2018-06-18T00:52:06.123Z,17.31
2018-06-18T00:53:05.534Z,17.31
2018-06-18T00:54:05.647Z,17.31
2018-06-18T00:55:06.065Z,17.31
2018-06-18T00:56:06.117Z,17.38
2018-06-18T00:57:05.706Z,17.38
2018-06-18T00:58:06.041Z,17.38
2018-06-18T00:59:06.164Z,17.38
2018-06-18T01:00:05.789Z,17.38
2018-06-18T01:01:05.624Z,17.38
2018-06-18T01:02:06.008Z,17.38
2018-06-18T01:03:05.688Z,17.38
2018-06-18T01:04:05.880Z,17.38
2018-06-18T01:05:06.131Z,17.38
2018-06-18T01:06:06.039Z,17.38
2018-06-18T01:07:06.332Z,17.31
2018-06-18T01:08:10.972Z,17.31
2018-06-18T01:09:06.506Z,17.31
2018-06-18T01:10:06.340Z,17.31
2018-06-18T01:11:05.879Z,17.31
2018-06-18T01:12:06.498Z,17.31
2018-06-18T01:13:10.576Z,17.38
2018-06-18T01:14:06.174Z,17.38
2018-06-18T01:15:05.775Z,17.38
2018-06-18T01:16:05.869Z,17.38
2018-06-18T01:17:06.492Z,17.38
2018-06-18T01:18:05.702Z,17.38
2018-06-18T01:19:06.271Z,17.38
2018-06-18T01:20:05.762Z,17.38
2018-06-18T01:21:05.848Z,17.38
2018-06-18T01:22:06.344Z,17.38
2018-06-18T01:23:05.853Z,17.31
2018-06-18T01:24:05.584Z,17.31
2018-06-18T01:25:06.261Z,17.31
2018-06-18T01:26:05.933Z,17.31
2018-06-18T01:27:05.954Z,17.31
2018-06-18T01:28:11.198Z,17.25
2018-06-18T01:29:05.700Z,17.31
2018-06-18T01:30:05.627Z,17.31
2018-06-18T01:31:06.578Z,17.31
2018-06-18T01:32:05.640Z,17.31
2018-06-18T01:33:05.712Z,17.25
2018-06-18T01:34:05.941Z,17.25
2018-06-18T01:35:10.937Z,17.25
2018-06-18T01:36:11.065Z,17.25
2018-06-18T01:37:05.781Z,17.25
2018-06-18T01:38:05.611Z,17.25
2018-06-18T01:39:06.758Z,17.31
2018-06-18T01:40:06.270Z,17.31
2018-06-18T01:41:05.964Z,17.31
2018-06-18T01:42:05.882Z,17.25
2018-06-18T01:43:06.421Z,17.25
2018-06-18T01:44:05.703Z,17.25
2018-06-18T01:45:05.533Z,17.25
2018-06-18T01:46:05.702Z,17.25
2018-06-18T01:47:06.459Z,17.25
2018-06-18T01:48:05.857Z,17.25
2018-06-18T01:49:05.991Z,17.25
2018-06-18T01:50:06.182Z,17.25
2018-06-18T01:51:06.185Z,17.25
2018-06-18T01:52:05.794Z,17.25
2018-06-18T01:53:06.094Z,17.25
2018-06-18T01:54:05.618Z,17.25
2018-06-18T01:55:06.211Z,17.25
2018-06-18T01:56:05.631Z,17.25
2018-06-18T01:57:05.780Z,17.25
2018-06-18T01:58:05.693Z,17.25
2018-06-18T01:59:06.378Z,17.25
2018-06-18T02:00:05.971Z,17.25
2018-06-18T02:01:06.096Z,17.25
2018-06-18T02:02:06.220Z,17.25
2018-06-18T02:03:06.173Z,17.25
2018-06-18T02:04:06.419Z,17.25
2018-06-18T02:05:06.300Z,17.25
2018-06-18T02:06:06.437Z,17.25
2018-06-18T02:07:06.091Z,17.19
2018-06-18T02:08:06.709Z,17.19
2018-06-18T02:09:06.250Z,17.19
2018-06-18T02:10:06.258Z,17.19
2018-06-18T02:11:05.956Z,17.19
2018-06-18T02:12:05.935Z,17.19
2018-06-18T02:13:06.641Z,17.12
2018-06-18T02:14:05.705Z,17.06
2018-06-18T02:15:06.340Z,17.06
2018-06-18T02:16:06.492Z,17.12
2018-06-18T02:17:05.953Z,17.12
2018-06-18T02:18:05.929Z,17.12
2018-06-18T02:19:05.688Z,17.12
2018-06-18T02:20:05.863Z,17.12
2018-06-18T02:21:10.938Z,17.12
2018-06-18T02:22:05.696Z,17.12
2018-06-18T02:23:05.708Z,17.12
2018-06-18T02:24:11.299Z,17.12
2018-06-18T02:25:06.450Z,17.06
2018-06-18T02:26:06.326Z,17.12
2018-06-18T02:27:06.161Z,17.06
2018-06-18T02:28:06.764Z,17.06
2018-06-18T02:29:06.094Z,17.06
2018-06-18T02:30:06.021Z,17.06
2018-06-18T02:31:11.049Z,17.06
2018-06-18T02:32:06.682Z,17.06
2018-06-18T02:33:06.543Z,17.06
2018-06-18T02:34:07.232Z,17.06
2018-06-18T02:35:06.603Z,17.06
2018-06-18T02:36:06.171Z,17.06
2018-06-18T02:37:06.651Z,17.06
2018-06-18T02:38:06.022Z,17.06
2018-06-18T02:39:10.898Z,17.06
2018-06-18T02:40:05.668Z,17.06
2018-06-18T02:41:05.700Z,17.06
2018-06-18T02:42:05.633Z,17.06
2018-06-18T02:43:11.390Z,17.06
2018-06-18T02:44:06.112Z,17.06
2018-06-18T02:45:06.121Z,17.06
2018-06-18T02:46:05.948Z,17.06
2018-06-18T02:47:06.318Z,17.06
2018-06-18T02:48:06.009Z,17.06
2018-06-18T02:49:05.618Z,17.06
2018-06-18T02:50:06.482Z,17.00
2018-06-18T02:51:11.195Z,17.00
2018-06-18T02:52:05.719Z,17.06
2018-06-18T02:53:11.420Z,17.00
2018-06-18T02:54:06.106Z,17.00
2018-06-18T02:55:06.104Z,17.00
2018-06-18T02:56:10.695Z,17.06
2018-06-18T02:57:05.629Z,17.00
2018-06-18T02:58:06.346Z,17.06
2018-06-18T02:59:06.364Z,17.06
2018-06-18T03:00:05.768Z,17.06
2018-06-18T03:01:05.702Z,17.00
2018-06-18T03:02:05.784Z,17.00
2018-06-18T03:03:11.500Z,17.06
2018-06-18T03:04:06.254Z,17.06
2018-06-18T03:05:05.959Z,17.06
2018-06-18T03:06:06.011Z,17.00
2018-06-18T03:07:05.772Z,17.06
2018-06-18T03:08:05.712Z,17.06
2018-06-18T03:09:05.725Z,17.06
2018-06-18T03:10:05.701Z,17.06
2018-06-18T03:11:05.843Z,17.06
2018-06-18T03:12:11.418Z,17.00
2018-06-18T03:13:06.540Z,17.06
2018-06-18T03:14:05.706Z,17.06
2018-06-18T03:15:05.932Z,17.06
2018-06-18T03:16:06.021Z,17.06
2018-06-18T03:17:05.990Z,17.00
2018-06-18T03:18:06.483Z,17.00
2018-06-18T03:19:06.647Z,17.00
2018-06-18T03:20:11.371Z,17.06
2018-06-18T03:21:06.026Z,17.06
2018-06-18T03:22:06.016Z,17.06
2018-06-18T03:23:06.111Z,17.00
2018-06-18T03:24:15.785Z,17.00
2018-06-18T03:25:06.484Z,17.00
2018-06-18T03:26:06.416Z,17.00
2018-06-18T03:27:11.104Z,17.00
2018-06-18T03:28:05.708Z,17.00
2018-06-18T03:29:05.889Z,17.00
2018-06-18T03:30:06.504Z,17.00
2018-06-18T03:31:06.616Z,17.00
2018-06-18T03:32:06.113Z,17.00
2018-06-18T03:33:06.279Z,17.00
2018-06-18T03:34:10.880Z,17.00
2018-06-18T03:35:05.461Z,17.00
2018-06-18T03:36:05.534Z,17.00
2018-06-18T03:37:05.797Z,17.00
2018-06-18T03:38:05.619Z,17.00
2018-06-18T03:39:06.611Z,17.00
2018-06-18T03:40:06.364Z,16.94
2018-06-18T03:41:05.720Z,17.00
2018-06-18T03:42:05.932Z,16.94
2018-06-18T03:43:06.773Z,17.00
2018-06-18T03:44:06.019Z,16.94
2018-06-18T03:45:06.407Z,17.00
2018-06-18T03:46:06.496Z,17.00
2018-06-18T03:47:06.286Z,17.00
2018-06-18T03:48:05.644Z,17.00
2018-06-18T03:49:05.791Z,17.00
2018-06-18T03:50:05.721Z,17.00
2018-06-18T03:51:06.491Z,17.00
2018-06-18T03:52:06.341Z,17.06
2018-06-18T03:53:06.191Z,17.06
2018-06-18T03:54:07.064Z,17.06
2018-06-18T03:55:05.925Z,17.06
2018-06-18T03:56:05.856Z,17.06
2018-06-18T03:57:05.709Z,17.06
2018-06-18T03:58:05.767Z,17.06
2018-06-18T03:59:05.942Z,17.06
2018-06-18T04:00:06.169Z,17.06
2018-06-18T04:01:06.282Z,17.12
2018-06-18T04:02:06.093Z,17.12
2018-06-18T04:03:05.696Z,17.12
2018-06-18T04:04:06.478Z,17.19
2018-06-18T04:05:06.349Z,17.19
2018-06-18T04:06:06.018Z,17.25
2018-06-18T04:07:06.256Z,17.25
2018-06-18T04:08:06.196Z,17.25
2018-06-18T04:09:05.967Z,17.25
2018-06-18T04:10:05.900Z,17.25
2018-06-18T04:11:06.252Z,17.25
2018-06-18T04:12:06.469Z,17.31
2018-06-18T04:13:06.102Z,17.44
2018-06-18T04:14:06.264Z,17.50
2018-06-18T04:15:06.913Z,17.56
2018-06-18T04:16:05.918Z,17.62
2018-06-18T04:17:06.181Z,17.62
2018-06-18T04:18:06.488Z,17.62
2018-06-18T04:19:06.098Z,17.62
2018-06-18T04:20:06.065Z,17.56
2018-06-18T04:21:05.632Z,17.56
2018-06-18T04:22:06.506Z,17.56
2018-06-18T04:23:05.616Z,17.56
2018-06-18T04:24:06.183Z,17.56
2018-06-18T04:25:11.359Z,17.56
2018-06-18T04:26:05.940Z,17.56
2018-06-18T04:27:05.609Z,17.56
2018-06-18T04:28:05.619Z,17.62
2018-06-18T04:29:05.857Z,17.75
2018-06-18T04:30:06.346Z,17.94
2018-06-18T04:31:11.021Z,18.06
2018-06-18T04:32:05.725Z,18.25
2018-06-18T04:33:06.238Z,18.38
2018-06-18T04:34:06.426Z,18.56
2018-06-18T04:35:06.136Z,18.69
2018-06-18T04:36:06.262Z,18.88
2018-06-18T04:37:05.899Z,19.06
2018-06-18T04:38:05.603Z,19.25
2018-06-18T04:39:06.347Z,19.44
2018-06-18T04:40:05.827Z,19.62
2018-06-18T04:41:05.927Z,19.81
2018-06-18T04:42:16.220Z,20.00
2018-06-18T04:43:05.871Z,20.25
2018-06-18T04:44:05.696Z,20.44
2018-06-18T04:45:07.074Z,20.69
2018-06-18T04:46:05.877Z,20.88
2018-06-18T04:47:06.420Z,20.94
2018-06-18T04:48:06.192Z,21.00
2018-06-18T04:49:05.860Z,21.00
2018-06-18T04:50:06.487Z,21.19
2018-06-18T04:51:06.341Z,21.31
2018-06-18T04:52:06.465Z,21.31
2018-06-18T04:53:05.623Z,21.31
2018-06-18T04:54:06.683Z,21.31
2018-06-18T04:55:06.731Z,21.31
2018-06-18T04:56:05.851Z,21.25
2018-06-18T04:57:06.248Z,21.25
2018-06-18T04:58:06.097Z,21.19
2018-06-18T04:59:06.463Z,21.19
2018-06-18T05:00:06.567Z,21.19
2018-06-18T05:01:06.406Z,21.12
2018-06-18T05:02:06.547Z,21.06
2018-06-18T05:03:05.699Z,21.06
2018-06-18T05:04:10.674Z,21.00
2018-06-18T05:05:06.341Z,21.00
2018-06-18T05:06:05.950Z,20.94
2018-06-18T05:07:06.270Z,20.94
2018-06-18T05:08:06.106Z,20.88
2018-06-18T05:09:06.509Z,20.81
2018-06-18T05:10:06.659Z,20.75
2018-06-18T05:11:05.700Z,20.69
2018-06-18T05:12:05.611Z,20.69
2018-06-18T05:13:05.976Z,20.62
2018-06-18T05:14:05.777Z,20.56
2018-06-18T05:15:06.147Z,20.50
2018-06-18T05:16:06.130Z,20.44
2018-06-18T05:17:06.930Z,20.38
2018-06-18T05:18:05.534Z,20.38
2018-06-18T05:19:06.719Z,20.31
2018-06-18T05:20:06.262Z,20.25
2018-06-18T05:21:06.125Z,20.25
2018-06-18T05:22:05.974Z,20.19
2018-06-18T05:23:05.790Z,20.12
2018-06-18T05:24:05.782Z,20.12
2018-06-18T05:25:05.942Z,20.06
2018-06-18T05:26:05.457Z,20.06
2018-06-18T05:27:05.639Z,20.06
2018-06-18T05:28:06.361Z,20.19
2018-06-18T05:29:06.501Z,20.38
2018-06-18T05:30:05.805Z,20.31
2018-06-18T05:31:10.570Z,20.19
2018-06-18T05:32:06.656Z,20.12
2018-06-18T05:33:05.577Z,20.12
2018-06-18T05:34:06.009Z,20.06
2018-06-18T05:35:05.618Z,20.06
2018-06-18T05:36:05.736Z,20.00
2018-06-18T05:37:06.281Z,20.00
2018-06-18T05:38:05.959Z,20.00
2018-06-18T05:39:05.917Z,20.00
2018-06-18T05:40:06.059Z,20.19
2018-06-18T05:41:06.208Z,20.19
2018-06-18T05:42:05.937Z,20.19
2018-06-18T05:43:05.661Z,20.12
2018-06-18T05:44:05.614Z,20.06
2018-06-18T05:45:06.534Z,20.00
2018-06-18T05:46:06.336Z,20.00
2018-06-18T05:47:06.098Z,20.00
2018-06-18T05:48:06.098Z,19.94
2018-06-18T05:49:05.707Z,19.94
2018-06-18T05:50:10.643Z,19.88
2018-06-18T05:51:05.775Z,19.88
2018-06-18T05:52:06.452Z,19.88
2018-06-18T05:53:05.749Z,19.81
2018-06-18T05:54:06.335Z,19.81
2018-06-18T05:55:11.191Z,19.75
2018-06-18T05:56:11.312Z,19.75
2018-06-18T05:57:06.030Z,19.75
2018-06-18T05:58:05.778Z,19.69
2018-06-18T05:59:05.609Z,19.69
2018-06-18T06:00:06.685Z,19.62
2018-06-18T06:01:06.152Z,19.62
2018-06-18T06:02:06.122Z,19.62
2018-06-18T06:03:05.847Z,19.62
2018-06-18T06:04:06.375Z,19.69
2018-06-18T06:05:11.275Z,19.88
2018-06-18T06:06:06.486Z,19.94
2018-06-18T06:07:06.681Z,19.94
2018-06-18T06:08:06.562Z,19.94
2018-06-18T06:09:05.864Z,20.00
2018-06-18T06:10:06.002Z,20.06
2018-06-18T06:11:05.755Z,19.88
2018-06-18T06:12:06.328Z,19.81
2018-06-18T06:13:05.643Z,19.69
2018-06-18T06:14:05.860Z,19.62
2018-06-18T06:15:11.375Z,19.56
2018-06-18T06:16:06.590Z,19.44
2018-06-18T06:17:06.979Z,19.44
2018-06-18T06:18:06.285Z,19.38
2018-06-18T06:19:06.253Z,19.31
2018-06-18T06:20:06.221Z,19.31
2018-06-18T06:21:05.947Z,19.31
2018-06-18T06:22:06.307Z,19.25
2018-06-18T06:23:06.641Z,19.25
2018-06-18T06:24:06.561Z,19.31
2018-06-18T06:25:06.526Z,19.25
2018-06-18T06:26:06.187Z,19.25
2018-06-18T06:27:06.009Z,19.25
2018-06-18T06:28:05.786Z,19.25
2018-06-18T06:29:06.242Z,19.25
2018-06-18T06:30:06.364Z,19.25
2018-06-18T06:31:06.341Z,19.31
2018-06-18T06:32:06.356Z,19.31
2018-06-18T06:33:06.150Z,19.31
2018-06-18T06:34:06.582Z,19.38
2018-06-18T06:35:06.106Z,19.38
2018-06-18T06:36:06.083Z,19.44
2018-06-18T06:37:05.636Z,19.50
2018-06-18T06:38:05.690Z,19.56
2018-06-18T06:39:10.980Z,19.62
2018-06-18T06:40:05.537Z,19.75
2018-06-18T06:41:06.526Z,19.81
2018-06-18T06:42:06.658Z,19.94
2018-06-18T06:43:06.590Z,20.00
2018-06-18T06:44:06.598Z,20.12
2018-06-18T06:45:06.406Z,20.31
2018-06-18T06:46:05.813Z,20.44
2018-06-18T06:47:06.045Z,20.56
2018-06-18T06:48:05.920Z,20.62
2018-06-18T06:49:06.419Z,20.81
2018-06-18T06:50:11.102Z,21.00
2018-06-18T06:51:06.460Z,21.19
2018-06-18T06:52:06.462Z,21.44
2018-06-18T06:53:06.558Z,21.62
2018-06-18T06:54:05.865Z,21.81
2018-06-18T06:55:06.193Z,21.94
2018-06-18T06:56:05.861Z,22.12
2018-06-18T06:57:06.033Z,22.25
2018-06-18T06:58:05.872Z,22.44
2018-06-18T06:59:05.927Z,22.62
2018-06-18T07:00:06.506Z,22.81
2018-06-18T07:01:05.755Z,22.94
2018-06-18T07:02:05.898Z,23.12
2018-06-18T07:03:06.172Z,23.25
2018-06-18T07:04:05.842Z,23.44
2018-06-18T07:05:10.831Z,23.62
2018-06-18T07:06:06.034Z,23.81
2018-06-18T07:07:05.626Z,23.94
2018-06-18T07:08:06.335Z,24.12
2018-06-18T07:09:06.335Z,24.19
2018-06-18T07:10:06.350Z,24.31
2018-06-18T07:11:11.421Z,24.38
2018-06-18T07:12:06.197Z,24.50
2018-06-18T07:13:10.623Z,24.50
2018-06-18T07:14:06.352Z,24.62
2018-06-18T07:15:06.212Z,24.69
2018-06-18T07:16:05.856Z,24.69
2018-06-18T07:17:05.699Z,24.75
2018-06-18T07:18:11.206Z,24.81
2018-06-18T07:19:05.783Z,24.88
2018-06-18T07:20:06.505Z,24.88
2018-06-18T07:21:06.313Z,24.88
2018-06-18T07:22:06.116Z,24.94
2018-06-18T07:23:06.329Z,24.94
2018-06-18T07:24:05.687Z,24.94
2018-06-18T07:25:06.191Z,24.94
2018-06-18T07:26:11.082Z,24.94
2018-06-18T07:27:05.790Z,25.00
2018-06-18T07:28:05.859Z,25.00
2018-06-18T07:29:06.575Z,25.00
2018-06-18T07:30:06.135Z,25.12
2018-06-18T07:31:06.173Z,25.12
2018-06-18T07:32:06.194Z,25.19
2018-06-18T07:33:06.225Z,25.19
2018-06-18T07:34:06.061Z,25.25
2018-06-18T07:35:06.055Z,25.31
2018-06-18T07:36:06.169Z,25.25
2018-06-18T07:37:05.879Z,25.19
2018-06-18T07:38:06.042Z,25.31
2018-06-18T07:39:05.846Z,25.38
2018-06-18T07:40:05.931Z,25.44
2018-06-18T07:41:05.534Z,25.50
2018-06-18T07:42:06.488Z,25.56
2018-06-18T07:43:06.523Z,25.69
2018-06-18T07:44:06.099Z,25.75
2018-06-18T07:45:05.635Z,25.81
2018-06-18T07:46:05.716Z,25.88
2018-06-18T07:47:05.738Z,25.94
2018-06-18T07:48:06.742Z,26.00
2018-06-18T07:49:06.042Z,26.06
2018-06-18T07:50:05.787Z,26.12
2018-06-18T07:51:06.264Z,26.19
2018-06-18T07:52:06.257Z,26.25
2018-06-18T07:53:06.022Z,26.25
2018-06-18T07:54:06.251Z,26.31
2018-06-18T07:55:05.808Z,26.38
2018-06-18T07:56:06.513Z,26.38
2018-06-18T07:57:05.749Z,26.38
2018-06-18T07:58:06.335Z,26.38
2018-06-18T07:59:06.290Z,26.38
2018-06-18T08:00:05.892Z,26.38
2018-06-18T08:01:05.909Z,26.38
2018-06-18T08:02:06.291Z,26.38
2018-06-18T08:03:06.532Z,26.44
2018-06-18T08:04:06.417Z,26.44
2018-06-18T08:05:06.427Z,26.44
2018-06-18T08:06:05.795Z,26.50
2018-06-18T08:07:06.107Z,26.50
2018-06-18T08:08:06.275Z,26.56
2018-06-18T08:09:05.783Z,26.56
2018-06-18T08:10:05.939Z,26.56
2018-06-18T08:11:05.557Z,26.50
2018-06-18T08:12:05.552Z,26.50
2018-06-18T08:13:06.414Z,26.44
2018-06-18T08:14:06.751Z,26.44
2018-06-18T08:15:05.733Z,26.44
2018-06-18T08:16:06.475Z,26.44
2018-06-18T08:17:05.915Z,26.44
2018-06-18T08:18:05.777Z,26.50
2018-06-18T08:19:06.280Z,26.50
2018-06-18T08:20:06.431Z,26.56
2018-06-18T08:21:06.095Z,26.56
2018-06-18T08:22:05.937Z,26.62
2018-06-18T08:23:05.638Z,26.62
2018-06-18T08:24:05.813Z,26.62
2018-06-18T08:25:05.954Z,26.69
2018-06-18T08:26:06.193Z,26.69
2018-06-18T08:27:06.102Z,26.75
2018-06-18T08:28:06.263Z,26.81
2018-06-18T08:29:06.119Z,26.88
2018-06-18T08:30:06.219Z,26.88
2018-06-18T08:31:06.496Z,26.88
2018-06-18T08:32:06.126Z,26.88
2018-06-18T08:33:05.955Z,26.88
2018-06-18T08:34:05.781Z,26.94
2018-06-18T08:35:05.621Z,26.88
2018-06-18T08:36:06.288Z,26.94
2018-06-18T08:37:05.871Z,26.94
2018-06-18T08:38:06.440Z,26.94
2018-06-18T08:39:10.967Z,26.88
2018-06-18T08:40:05.624Z,26.81
2018-06-18T08:41:05.540Z,26.81
2018-06-18T08:42:06.518Z,26.75
2018-06-18T08:43:11.430Z,26.69
2018-06-18T08:44:05.549Z,26.69
2018-06-18T08:45:05.970Z,26.62
2018-06-18T08:46:06.021Z,26.62
2018-06-18T08:47:10.864Z,26.62
2018-06-18T08:48:06.419Z,26.62
2018-06-18T08:49:06.424Z,26.56
2018-06-18T08:50:06.493Z,26.56
2018-06-18T08:51:06.340Z,26.56
2018-06-18T08:52:05.475Z,26.56
2018-06-18T08:53:06.309Z,26.50
2018-06-18T08:54:06.766Z,26.50
2018-06-18T08:55:06.011Z,26.44
2018-06-18T08:56:06.214Z,26.44
2018-06-18T08:57:06.191Z,26.50
2018-06-18T08:58:05.913Z,26.50
2018-06-18T08:59:06.017Z,26.50
2018-06-18T09:00:11.328Z,26.50
2018-06-18T09:01:05.708Z,26.44
2018-06-18T09:02:05.628Z,26.44
2018-06-18T09:03:10.665Z,26.38
2018-06-18T09:04:05.898Z,26.44
2018-06-18T09:05:05.616Z,26.38
2018-06-18T09:06:06.275Z,26.38
2018-06-18T09:07:06.463Z,26.44
2018-06-18T09:08:06.435Z,26.44
2018-06-18T09:09:06.497Z,26.44
2018-06-18T09:10:06.732Z,26.44
2018-06-18T09:11:11.453Z,26.44
2018-06-18T09:12:06.101Z,26.44
2018-06-18T09:13:05.790Z,26.50
2018-06-18T09:14:06.265Z,26.50
2018-06-18T09:15:06.312Z,26.50
2018-06-18T09:16:06.367Z,26.56
2018-06-18T09:17:11.150Z,26.56
2018-06-18T09:18:05.713Z,26.56
2018-06-18T09:19:05.617Z,26.56
2018-06-18T09:20:05.871Z,26.50
2018-06-18T09:21:10.830Z,26.56
2018-06-18T09:22:05.788Z,26.50
2018-06-18T09:23:10.743Z,26.56
2018-06-18T09:24:06.424Z,26.56
2018-06-18T09:25:06.037Z,26.50
2018-06-18T09:26:11.128Z,26.50
2018-06-18T09:27:05.860Z,26.44
2018-06-18T09:28:11.324Z,26.38
2018-06-18T09:29:06.779Z,26.44
2018-06-18T09:30:05.858Z,26.38
2018-06-18T09:31:10.635Z,26.38
2018-06-18T09:32:06.415Z,26.31
2018-06-18T09:33:06.343Z,26.31
2018-06-18T09:34:06.521Z,26.31
2018-06-18T09:35:11.071Z,26.31
2018-06-18T09:36:05.708Z,26.25
2018-06-18T09:37:05.630Z,26.25
2018-06-18T09:38:05.714Z,26.31
2018-06-18T09:39:06.491Z,26.38
2018-06-18T09:40:06.102Z,26.38
2018-06-18T09:41:06.091Z,26.38
2018-06-18T09:42:05.972Z,26.38
2018-06-18T09:43:06.150Z,26.38
2018-06-18T09:44:06.585Z,26.38
2018-06-18T09:45:06.483Z,26.38
2018-06-18T09:46:05.549Z,26.44
2018-06-18T09:47:06.743Z,26.44
2018-06-18T09:48:06.592Z,26.44
2018-06-18T09:49:06.819Z,26.44
2018-06-18T09:50:06.072Z,26.44
2018-06-18T09:51:05.900Z,26.50
2018-06-18T09:52:10.912Z,26.50
2018-06-18T09:53:05.544Z,26.50
2018-06-18T09:54:05.742Z,26.50
2018-06-18T09:55:06.463Z,26.50
2018-06-18T09:56:06.649Z,26.50
2018-06-18T09:57:06.129Z,26.44
2018-06-18T09:58:05.699Z,26.50
2018-06-18T09:59:06.660Z,26.50
2018-06-18T10:00:06.259Z,26.50
2018-06-18T10:01:10.895Z,26.44
2018-06-18T10:02:05.466Z,26.50
2018-06-18T10:03:06.598Z,26.50
2018-06-18T10:04:06.267Z,26.50
2018-06-18T10:05:06.467Z,26.56
2018-06-18T10:06:06.640Z,26.56
2018-06-18T10:07:06.503Z,26.56
2018-06-18T10:08:05.796Z,26.50
2018-06-18T10:09:05.890Z,26.56
2018-06-18T10:10:06.486Z,26.56
2018-06-18T10:11:06.549Z,26.56
2018-06-18T10:12:06.460Z,26.56
2018-06-18T10:13:11.226Z,26.56
2018-06-18T10:14:06.436Z,26.50
2018-06-18T10:15:06.621Z,26.50
2018-06-18T10:16:10.465Z,26.56
2018-06-18T10:17:06.508Z,26.50
2018-06-18T10:18:06.264Z,26.50
2018-06-18T10:19:06.204Z,26.50
2018-06-18T10:20:05.792Z,26.44
2018-06-18T10:21:05.462Z,26.50
2018-06-18T10:22:05.653Z,26.44
2018-06-18T10:23:06.343Z,26.38
2018-06-18T10:24:05.956Z,26.44
2018-06-18T10:25:06.699Z,26.44
2018-06-18T10:26:05.933Z,26.44
2018-06-18T10:27:06.568Z,26.44
2018-06-18T10:28:05.477Z,26.44
2018-06-18T10:29:06.295Z,26.44
2018-06-18T10:30:06.426Z,26.44
2018-06-18T10:31:05.988Z,26.50
2018-06-18T10:32:05.862Z,26.50
2018-06-18T10:33:06.219Z,26.56
2018-06-18T10:34:05.912Z,26.56
2018-06-18T10:35:05.978Z,26.56
2018-06-18T10:36:06.021Z,26.56
2018-06-18T10:37:05.989Z,26.62
2018-06-18T10:38:05.700Z,26.62
2018-06-18T10:39:05.614Z,26.69
2018-06-18T10:40:05.911Z,26.69
2018-06-18T10:41:06.344Z,26.69
2018-06-18T10:42:06.433Z,26.69
2018-06-18T10:43:05.882Z,26.69
2018-06-18T10:44:10.580Z,26.75
2018-06-18T10:45:06.264Z,26.75
2018-06-18T10:46:06.147Z,26.69
2018-06-18T10:47:06.214Z,26.69
2018-06-18T10:48:06.120Z,26.69
2018-06-18T10:49:06.553Z,26.69
2018-06-18T10:50:05.630Z,26.69
2018-06-18T10:51:06.268Z,26.69
2018-06-18T10:52:06.833Z,26.75
2018-06-18T10:53:06.427Z,26.75
2018-06-18T10:54:06.264Z,26.81
2018-06-18T10:55:05.933Z,26.81
2018-06-18T10:56:06.043Z,26.81
2018-06-18T10:57:05.642Z,26.81
2018-06-18T10:58:11.341Z,26.88
2018-06-18T10:59:05.775Z,26.88
2018-06-18T11:00:06.186Z,26.88
2018-06-18T11:01:05.943Z,26.88
2018-06-18T11:02:05.707Z,26.88
2018-06-18T11:03:10.657Z,26.94
2018-06-18T11:04:06.345Z,26.88
2018-06-18T11:05:06.108Z,26.94
2018-06-18T11:06:05.790Z,26.94
2018-06-18T11:07:05.640Z,26.94
2018-06-18T11:08:06.097Z,27.00
2018-06-18T11:09:05.773Z,27.00
2018-06-18T11:10:05.703Z,27.00
2018-06-18T11:11:06.496Z,27.06
2018-06-18T11:12:06.185Z,27.06
2018-06-18T11:13:10.701Z,27.12
2018-06-18T11:14:06.271Z,27.06
2018-06-18T11:15:10.891Z,27.06
2018-06-18T11:16:06.458Z,27.12
2018-06-18T11:17:06.557Z,27.06
2018-06-18T11:18:06.099Z,27.06
2018-06-18T11:19:05.872Z,27.06
2018-06-18T11:20:05.638Z,27.12
2018-06-18T11:21:05.890Z,27.06
2018-06-18T11:22:06.369Z,27.12
2018-06-18T11:23:06.414Z,27.12
2018-06-18T11:24:06.021Z,27.06
2018-06-18T11:25:06.496Z,27.06
2018-06-18T11:26:11.138Z,27.00
2018-06-18T11:27:06.073Z,27.00
2018-06-18T11:28:06.432Z,27.06
2018-06-18T11:29:05.867Z,27.06
2018-06-18T11:30:06.127Z,27.06
2018-06-18T11:31:06.345Z,27.06
2018-06-18T11:32:05.778Z,27.06
2018-06-18T11:33:06.079Z,27.06
2018-06-18T11:34:06.177Z,27.06
2018-06-18T11:35:06.268Z,27.06
2018-06-18T11:36:06.591Z,27.12
2018-06-18T11:37:06.435Z,27.06
2018-06-18T11:38:06.544Z,27.06
2018-06-18T11:39:06.135Z,27.00
2018-06-18T11:40:06.137Z,26.94
2018-06-18T11:41:06.019Z,26.88
2018-06-18T11:42:06.363Z,26.81
2018-06-18T11:43:06.470Z,26.81
2018-06-18T11:44:06.101Z,26.81
2018-06-18T11:45:06.570Z,26.75
2018-06-18T11:46:07.158Z,26.81
2018-06-18T11:47:06.015Z,26.88
2018-06-18T11:48:06.919Z,26.94
2018-06-18T11:49:11.600Z,26.94
2018-06-18T11:50:06.941Z,27.00
2018-06-18T11:51:05.994Z,27.00
2018-06-18T11:52:06.423Z,27.00
2018-06-18T11:53:05.942Z,27.00
2018-06-18T11:54:05.779Z,27.00
2018-06-18T11:55:06.502Z,27.00
2018-06-18T11:56:06.363Z,27.00
2018-06-18T11:57:05.867Z,27.00
2018-06-18T11:58:05.620Z,27.00
2018-06-18T11:59:06.016Z,27.00
2018-06-18T12:00:06.109Z,27.06
2018-06-18T12:01:10.901Z,27.00
2018-06-18T12:02:05.635Z,27.00
2018-06-18T12:03:06.212Z,27.00
2018-06-18T12:04:05.639Z,27.06
2018-06-18T12:05:06.425Z,27.00
2018-06-18T12:06:10.504Z,27.00
2018-06-18T12:07:07.045Z,27.00
2018-06-18T12:08:05.719Z,27.00
2018-06-18T12:09:06.200Z,27.00
2018-06-18T12:10:05.789Z,27.00
2018-06-18T12:11:06.471Z,27.00
2018-06-18T12:12:06.266Z,27.00
2018-06-18T12:13:06.589Z,27.06
2018-06-18T12:14:06.654Z,27.00
2018-06-18T12:15:11.435Z,27.06
2018-06-18T12:16:06.199Z,27.06
2018-06-18T12:17:06.339Z,27.06
2018-06-18T12:18:05.646Z,27.06
2018-06-18T12:19:05.706Z,27.06
2018-06-18T12:20:05.765Z,27.06
2018-06-18T12:21:05.710Z,27.12
2018-06-18T12:22:05.657Z,27.12
2018-06-18T12:23:05.830Z,27.12
2018-06-18T12:24:05.774Z,27.19
2018-06-18T12:25:05.867Z,27.25
2018-06-18T12:26:05.887Z,27.25
2018-06-18T12:27:06.029Z,27.25
2018-06-18T12:28:05.943Z,27.25
2018-06-18T12:29:06.426Z,27.31
2018-06-18T12:30:06.515Z,27.31
2018-06-18T12:31:05.700Z,27.31
2018-06-18T12:32:06.619Z,27.38
2018-06-18T12:33:06.495Z,27.38
2018-06-18T12:34:06.627Z,27.44
2018-06-18T12:35:06.587Z,27.44
2018-06-18T12:36:06.932Z,27.50
2018-06-18T12:37:05.677Z,27.50
2018-06-18T12:38:06.139Z,27.50
2018-06-18T12:39:06.191Z,27.56
2018-06-18T12:40:05.801Z,27.56
2018-06-18T12:41:05.746Z,27.62
2018-06-18T12:42:05.623Z,27.62
2018-06-18T12:43:06.820Z,27.62
2018-06-18T12:44:05.715Z,27.62
2018-06-18T12:45:06.373Z,27.62
2018-06-18T12:46:06.167Z,27.62
2018-06-18T12:47:10.863Z,27.56
2018-06-18T12:48:05.981Z,27.56
2018-06-18T12:49:11.148Z,27.56
2018-06-18T12:50:05.849Z,27.56
2018-06-18T12:51:05.940Z,27.56
2018-06-18T12:52:05.645Z,27.56